WetterOnline ( http://www.wetteronline.de )

Wetter aktuell Schkopau

Aktuelles Wetter: Leipzig/Halle (136m)

6-stündlich | Neueste Meldungen
Ortszeit Temperatur Wetter
Di, 19.02. 19:00 6.0° C wolkig
Di, 19.02. 13:00 8.1° C leichter Regen
Di, 19.02. 7:00 4.7° C leicht bewölkt
Di, 19.02. 1:00 6.5° C leicht bewölkt
Mo, 18.02. 19:00 9.7° C fast wolkenlos
Mo, 18.02. 13:00 13.0° C fast wolkenlos
Mo, 18.02. 7:00 2.7° C leicht bewölkt
Mo, 18.02. 1:00 5.6° C leicht bewölkt
Ortszeit Temperatur Wetter
Di, 19.02. 21:30 6.0° C -
Di, 19.02. 21:20 6.0° C bewölkt
Di, 19.02. 21:10 6.2° C bewölkt
Di, 19.02. 21:00 5.9° C wolkig
Di, 19.02. 20:50 5.9° C wolkig
Di, 19.02. 20:40 6.0° C leicht bewölkt
Di, 19.02. 20:30 5.5° C leicht bewölkt
Di, 19.02. 20:00 6.8° C bewölkt
Di, 19.02. 19:30 6.3° C bewölkt
Di, 19.02. 19:00 6.0° C wolkig
Di, 19.02. 18:30 4.8° C leicht bewölkt
Ortszeit Relative Feuchte Sichtweite
Di, 19.02. 19:00 78% 30 km
Di, 19.02. 13:00 67% 35 km
Di, 19.02. 7:00 66% 30 km
Di, 19.02. 1:00 58% 40 km
Mo, 18.02. 19:00 50% 40 km
Mo, 18.02. 13:00 43% 40 km
Mo, 18.02. 7:00 73% 25 km
Mo, 18.02. 1:00 69% 25 km
Ortszeit Relative Feuchte Sichtweite
Di, 19.02. 21:30 73% -
Di, 19.02. 21:20 73% -
Di, 19.02. 21:10 73% -
Di, 19.02. 21:00 74% 30 km
Di, 19.02. 20:50 74% -
Di, 19.02. 20:40 74% -
Di, 19.02. 20:30 75% -
Di, 19.02. 20:00 72% 30 km
Di, 19.02. 19:30 76% -
Di, 19.02. 19:00 78% 30 km
Di, 19.02. 18:30 75% -
Ortszeit Niederschlagsmenge Niederschlagsart
Di, 19.02. 19:00 0.1 l/m2 in 12 Std. -
Di, 19.02. 13:00 0.1 l/m2 in 6 Std. -
Di, 19.02. 7:00 0.0 l/m2 in 12 Std. -
Di, 19.02. 1:00 0.0 l/m2 in 6 Std. -
Mo, 18.02. 19:00 0.0 l/m2 in 12 Std. -
Mo, 18.02. 13:00 0.0 l/m2 in 6 Std. -
Mo, 18.02. 7:00 0.0 l/m2 in 12 Std. -
Mo, 18.02. 1:00 0.0 l/m2 in 6 Std. -
Ortszeit Niederschlagsmenge Niederschlagsart
Di, 19.02. 21:30 0.0 l/m2 in 1 Std. -
Di, 19.02. 21:20 keine Meldung -
Di, 19.02. 21:10 keine Meldung -
Di, 19.02. 21:00 0.0 l/m2 in 1 Std. -
Di, 19.02. 20:50 keine Meldung -
Di, 19.02. 20:40 keine Meldung -
Di, 19.02. 20:30 0.0 l/m2 in 1 Std. -
Di, 19.02. 20:00 0.0 l/m2 in 1 Std. -
Di, 19.02. 19:30 0.0 l/m2 in 1 Std. -
Di, 19.02. 19:00 0.0 l/m2 in 1 Std. -
Di, 19.02. 18:30 0.0 l/m2 in 1 Std. -
Ortszeit Stärke Spitze Richtung
km/h Bft. km/h Grad Sektor
Di, 19.02. 19:00 17 3 37 230° SW
Di, 19.02. 13:00 25 4 40 250° W
Di, 19.02. 7:00 18 3 25 210° SW
Di, 19.02. 1:00 14 3 25 200° S
Mo, 18.02. 19:00 7 2 22 130° SO
Mo, 18.02. 13:00 13 3 24 210° SW
Mo, 18.02. 7:00 14 3 32 200° S
Mo, 18.02. 1:00 29 5 36 190° S
Ortszeit Stärke Spitze Richtung
km/h Bft. km/h Grad Sektor
Di, 19.02. 21:30 24 4 31 240° SW
Di, 19.02. 21:20 24 4 - 240° SW
Di, 19.02. 21:10 22 4 - 240° SW
Di, 19.02. 21:00 25 4 32 240° SW
Di, 19.02. 20:50 25 4 - 240° SW
Di, 19.02. 20:40 26 4 - 240° SW
Di, 19.02. 20:30 26 4 33 230° SW
Di, 19.02. 20:00 28 4 33 240° SW
Di, 19.02. 19:30 22 4 26 230° SW
Di, 19.02. 19:00 17 3 20 230° SW
Di, 19.02. 18:30 18 3 22 230° SW
Ortszeit Untergrenze Bedeckung Gattung
total tief tief mittel hoch
Di, 19.02. 19:00 1800 m 5/8 5/8 Sc - -
Di, 19.02. 13:00 1140 m 8/8 7/8 Sc - -
Di, 19.02. 7:00 7500 m 7/8 0/8 - - Ci
Di, 19.02. 1:00 7800 m 4/8 0/8 - - Ci
Mo, 18.02. 19:00 3900 m 1/8 1/8 - Ac -
Mo, 18.02. 13:00 10500 m 1/8 0/8 - - Ci
Mo, 18.02. 7:00 9000 m 2/8 0/8 - - Ci
Mo, 18.02. 1:00 9000 m 7/8 0/8 - - Ci
Ortszeit Bedeckungsgrad in Achtel und Wolkenuntergrenze
Di, 19.02. 21:30 -
Di, 19.02. 21:20 1(2100m) 7(2400m)
Di, 19.02. 21:10 3(2100m) 7(2400m)
Di, 19.02. 21:00 6(1800m) 7(2400m)
Di, 19.02. 20:50 4(1800m) 6(2100m)
Di, 19.02. 20:40 2(1800m) 3(2100m)
Di, 19.02. 20:30 2(1800m)
Di, 19.02. 20:00 4(1380m) 7(1800m)
Di, 19.02. 19:30 3(1470m) 7(2100m)
Di, 19.02. 19:00 5(1800m) 6(1800m)
Di, 19.02. 18:30 4(1500m)
Ortszeit Luftdruck NN (hPa) Tendenz (hPa in 3 Std.)
Di, 19.02. 19:00 1019 + 0,9
Di, 19.02. 13:00 1018 + 0,6
Di, 19.02. 7:00 1016 + 0,2
Di, 19.02. 1:00 1017 - 0,4
Mo, 18.02. 19:00 1017 - 1,0
Mo, 18.02. 13:00 1020 - 1,0
Mo, 18.02. 7:00 1022 - 0,2
Mo, 18.02. 1:00 1022 - 0,2
Ortszeit Luftdruck NN (hPa) Tendenz (hPa in 3 Std.)
Di, 19.02. 21:30 1019 + 0,7
Di, 19.02. 21:20 1019 keine Meldung
Di, 19.02. 21:10 1019 keine Meldung
Di, 19.02. 21:00 1019 + 0,9
Di, 19.02. 20:50 1019 keine Meldung
Di, 19.02. 20:40 1019 keine Meldung
Di, 19.02. 20:30 1019 + 0,9
Di, 19.02. 20:00 1018 + 0,9
Di, 19.02. 19:30 1019 + 1,2
Di, 19.02. 19:00 1019 + 0,9
Di, 19.02. 18:30 1018 + 0,9
Ortszeit Schneehöhe (cm)
Di, 19.02. 19:00 0
Di, 19.02. 13:00 0
Di, 19.02. 7:00 0
Di, 19.02. 1:00 0
Mo, 18.02. 19:00 0
Mo, 18.02. 13:00 0
Mo, 18.02. 7:00 0
Mo, 18.02. 1:00 0
Ortszeit Schneehöhe (cm)
Di, 19.02. 21:30 -
Di, 19.02. 21:20 -
Di, 19.02. 21:10 -
Di, 19.02. 21:00 -
Di, 19.02. 20:50 -
Di, 19.02. 20:40 -
Di, 19.02. 20:30 -
Di, 19.02. 20:00 -
Di, 19.02. 19:30 -
Di, 19.02. 19:00 0
Di, 19.02. 18:30 -
Link zu dieser Seite / Seite empfehlen

Das Wetter in ...